sensor_id;sensor_type;location;lat;lon;timestamp;pressure;altitude;pressure_sealevel;temperature;humidity
45813;BME280;31519;45.408;10.962;2023-06-10T00:00:09;100278.38;;;27.41;59.38
45813;BME280;31519;45.408;10.962;2023-06-10T00:03:00;100282.69;;;27.22;59.86
45813;BME280;31519;45.408;10.962;2023-06-10T00:05:30;100283.69;;;27.28;60.09
45813;BME280;31519;45.408;10.962;2023-06-10T00:07:58;100287.44;;;27.73;58.74
45813;BME280;31519;45.408;10.962;2023-06-10T00:10:27;100281.22;;;27.89;57.87
45813;BME280;31519;45.408;10.962;2023-06-10T00:12:55;100282.91;;;27.83;58.33
45813;BME280;31519;45.408;10.962;2023-06-10T00:15:24;100285.19;;;27.68;58.66
45813;BME280;31519;45.408;10.962;2023-06-10T00:17:52;100279.16;;;28.09;57.87
45813;BME280;31519;45.408;10.962;2023-06-10T00:20:21;100275.81;;;28.02;57.77
45813;BME280;31519;45.408;10.962;2023-06-10T00:22:52;100278.66;;;27.98;57.42
45813;BME280;31519;45.408;10.962;2023-06-10T00:25:21;100278.75;;;27.95;57.82
45813;BME280;31519;45.408;10.962;2023-06-10T00:27:49;100270.09;;;27.96;58.20
45813;BME280;31519;45.408;10.962;2023-06-10T00:30:17;100278.47;;;28.05;57.51
45813;BME280;31519;45.408;10.962;2023-06-10T00:32:45;100263.09;;;27.95;58.15
45813;BME280;31519;45.408;10.962;2023-06-10T00:35:14;100278.88;;;27.36;59.35
45813;BME280;31519;45.408;10.962;2023-06-10T00:37:42;100283.22;;;27.33;60.17
45813;BME280;31519;45.408;10.962;2023-06-10T00:40:10;100282.44;;;26.50;65.00
45813;BME280;31519;45.408;10.962;2023-06-10T00:42:39;100283.38;;;25.90;69.06
45813;BME280;31519;45.408;10.962;2023-06-10T00:45:07;100284.34;;;26.30;68.29
45813;BME280;31519;45.408;10.962;2023-06-10T00:47:36;100282.16;;;26.18;67.95
45813;BME280;31519;45.408;10.962;2023-06-10T00:50:05;100275.94;;;26.17;69.03
45813;BME280;31519;45.408;10.962;2023-06-10T00:52:35;100288.19;;;26.32;67.95
45813;BME280;31519;45.408;10.962;2023-06-10T00:55:04;100288.81;;;26.86;65.35
45813;BME280;31519;45.408;10.962;2023-06-10T00:57:34;100285.41;;;26.59;66.45
45813;BME280;31519;45.408;10.962;2023-06-10T01:00:02;100288.91;;;26.36;67.27
45813;BME280;31519;45.408;10.962;2023-06-10T01:02:35;100287.63;;;26.18;68.38
45813;BME280;31519;45.408;10.962;2023-06-10T01:05:04;100286.56;;;26.38;67.84
45813;BME280;31519;45.408;10.962;2023-06-10T01:10:19;100290.91;;;25.55;71.34
45813;BME280;31519;45.408;10.962;2023-06-10T01:15:31;100292.31;;;26.17;69.94
45813;BME280;31519;45.408;10.962;2023-06-10T01:18:04;100282.22;;;26.14;69.34
45813;BME280;31519;45.408;10.962;2023-06-10T01:20:38;100294.16;;;26.00;69.65
45813;BME280;31519;45.408;10.962;2023-06-10T01:23:10;100290.44;;;25.87;70.08
45813;BME280;31519;45.408;10.962;2023-06-10T01:26:11;100282.81;;;26.02;69.48
45813;BME280;31519;45.408;10.962;2023-06-10T01:28:54;100281.44;;;25.90;69.42
45813;BME280;31519;45.408;10.962;2023-06-10T01:31:39;100281.78;;;25.92;69.33
45813;BME280;31519;45.408;10.962;2023-06-10T01:34:12;100287.81;;;25.80;70.75
45813;BME280;31519;45.408;10.962;2023-06-10T01:36:46;100284.47;;;25.69;71.46
45813;BME280;31519;45.408;10.962;2023-06-10T01:39:17;100284.88;;;25.37;73.67
45813;BME280;31519;45.408;10.962;2023-06-10T01:41:49;100278.38;;;24.94;76.03
45813;BME280;31519;45.408;10.962;2023-06-10T01:44:21;100287.78;;;25.23;74.85
45813;BME280;31519;45.408;10.962;2023-06-10T01:46:50;100282.88;;;25.07;76.58
45813;BME280;31519;45.408;10.962;2023-06-10T01:49:18;100289.34;;;25.54;73.80
45813;BME280;31519;45.408;10.962;2023-06-10T01:51:47;100275.19;;;25.90;72.32
45813;BME280;31519;45.408;10.962;2023-06-10T01:54:15;100279.09;;;25.62;74.21
45813;BME280;31519;45.408;10.962;2023-06-10T01:56:43;100282.81;;;25.45;75.18
45813;BME280;31519;45.408;10.962;2023-06-10T01:59:12;100282.31;;;25.84;73.61
45813;BME280;31519;45.408;10.962;2023-06-10T02:01:40;100288.00;;;26.20;70.88
45813;BME280;31519;45.408;10.962;2023-06-10T02:04:10;100272.66;;;25.76;72.52
45813;BME280;31519;45.408;10.962;2023-06-10T02:06:39;100278.53;;;25.44;74.36
45813;BME280;31519;45.408;10.962;2023-06-10T02:09:07;100272.59;;;25.22;75.03
45813;BME280;31519;45.408;10.962;2023-06-10T02:11:35;100277.91;;;25.33;74.14
45813;BME280;31519;45.408;10.962;2023-06-10T02:14:03;100267.13;;;24.92;76.35
45813;BME280;31519;45.408;10.962;2023-06-10T02:16:32;100265.56;;;25.25;75.28
45813;BME280;31519;45.408;10.962;2023-06-10T02:19:00;100265.00;;;25.06;76.81
45813;BME280;31519;45.408;10.962;2023-06-10T02:21:28;100268.97;;;25.02;76.46
45813;BME280;31519;45.408;10.962;2023-06-10T02:23:56;100261.63;;;25.29;75.40
45813;BME280;31519;45.408;10.962;2023-06-10T02:26:25;100277.94;;;24.99;77.11
45813;BME280;31519;45.408;10.962;2023-06-10T02:28:53;100273.91;;;25.41;75.52
45813;BME280;31519;45.408;10.962;2023-06-10T02:31:23;100267.22;;;25.76;73.15
45813;BME280;31519;45.408;10.962;2023-06-10T02:33:54;100275.41;;;25.76;72.09
45813;BME280;31519;45.408;10.962;2023-06-10T02:36:24;100276.94;;;25.77;71.99
45813;BME280;31519;45.408;10.962;2023-06-10T02:38:55;100284.03;;;25.74;71.38
45813;BME280;31519;45.408;10.962;2023-06-10T02:41:23;100290.38;;;25.34;73.67
45813;BME280;31519;45.408;10.962;2023-06-10T02:43:54;100278.75;;;25.87;71.86
45813;BME280;31519;45.408;10.962;2023-06-10T02:46:23;100286.63;;;25.81;71.19
45813;BME280;31519;45.408;10.962;2023-06-10T02:48:53;100288.19;;;25.52;71.84
45813;BME280;31519;45.408;10.962;2023-06-10T02:51:24;100274.88;;;25.57;69.54
45813;BME280;31519;45.408;10.962;2023-06-10T02:53:58;100271.50;;;25.46;68.96
45813;BME280;31519;45.408;10.962;2023-06-10T02:56:26;100272.44;;;25.93;67.31
45813;BME280;31519;45.408;10.962;2023-06-10T02:58:57;100268.94;;;25.66;66.84
45813;BME280;31519;45.408;10.962;2023-06-10T03:01:27;100285.72;;;25.91;66.22
45813;BME280;31519;45.408;10.962;2023-06-10T03:04:06;100279.53;;;25.87;65.21
45813;BME280;31519;45.408;10.962;2023-06-10T03:06:35;100280.53;;;25.43;65.86
45813;BME280;31519;45.408;10.962;2023-06-10T03:09:14;100289.38;;;25.21;66.92
45813;BME280;31519;45.408;10.962;2023-06-10T03:11:45;100284.72;;;25.17;66.82
45813;BME280;31519;45.408;10.962;2023-06-10T03:14:13;100283.44;;;25.59;65.42
45813;BME280;31519;45.408;10.962;2023-06-10T03:16:41;100291.41;;;25.13;67.42
45813;BME280;31519;45.408;10.962;2023-06-10T03:19:10;100293.59;;;24.91;68.79
45813;BME280;31519;45.408;10.962;2023-06-10T03:21:45;100303.91;;;25.07;68.05
45813;BME280;31519;45.408;10.962;2023-06-10T03:24:15;100299.13;;;24.81;69.07
45813;BME280;31519;45.408;10.962;2023-06-10T03:26:44;100298.66;;;24.89;69.09
45813;BME280;31519;45.408;10.962;2023-06-10T03:29:14;100301.50;;;24.79;69.84
45813;BME280;31519;45.408;10.962;2023-06-10T03:31:43;100292.84;;;25.21;68.18
45813;BME280;31519;45.408;10.962;2023-06-10T03:34:11;100294.31;;;24.54;71.20
45813;BME280;31519;45.408;10.962;2023-06-10T03:36:39;100296.78;;;24.83;69.66
45813;BME280;31519;45.408;10.962;2023-06-10T03:39:10;100298.44;;;25.10;68.06
45813;BME280;31519;45.408;10.962;2023-06-10T03:41:39;100299.84;;;25.22;66.72
45813;BME280;31519;45.408;10.962;2023-06-10T03:44:07;100298.06;;;25.08;66.85
45813;BME280;31519;45.408;10.962;2023-06-10T03:46:35;100297.34;;;25.38;66.38
45813;BME280;31519;45.408;10.962;2023-06-10T03:49:04;100294.56;;;25.72;64.34
45813;BME280;31519;45.408;10.962;2023-06-10T03:51:35;100296.00;;;25.20;66.53
45813;BME280;31519;45.408;10.962;2023-06-10T03:54:03;100306.50;;;25.55;65.12
45813;BME280;31519;45.408;10.962;2023-06-10T03:56:32;100302.34;;;25.74;64.56
45813;BME280;31519;45.408;10.962;2023-06-10T03:59:00;100298.56;;;25.91;63.63
45813;BME280;31519;45.408;10.962;2023-06-10T04:01:29;100305.00;;;25.77;63.79
45813;BME280;31519;45.408;10.962;2023-06-10T04:03:57;100307.41;;;25.75;63.39
45813;BME280;31519;45.408;10.962;2023-06-10T04:06:25;100303.13;;;25.10;65.27
45813;BME280;31519;45.408;10.962;2023-06-10T04:08:55;100315.69;;;25.34;64.89
45813;BME280;31519;45.408;10.962;2023-06-10T04:11:27;100303.22;;;24.99;66.67
45813;BME280;31519;45.408;10.962;2023-06-10T04:13:57;100302.94;;;24.90;66.40
45813;BME280;31519;45.408;10.962;2023-06-10T04:16:27;100291.91;;;24.63;67.78
45813;BME280;31519;45.408;10.962;2023-06-10T04:18:56;100299.25;;;25.07;66.03
45813;BME280;31519;45.408;10.962;2023-06-10T04:21:24;100302.34;;;25.09;65.76
45813;BME280;31519;45.408;10.962;2023-06-10T04:23:53;100296.28;;;24.95;66.16
45813;BME280;31519;45.408;10.962;2023-06-10T04:26:21;100295.28;;;25.46;64.74
45813;BME280;31519;45.408;10.962;2023-06-10T04:28:51;100279.22;;;25.82;64.07
45813;BME280;31519;45.408;10.962;2023-06-10T04:31:20;100285.84;;;25.81;63.38
45813;BME280;31519;45.408;10.962;2023-06-10T04:33:48;100280.06;;;25.79;63.26
45813;BME280;31519;45.408;10.962;2023-06-10T04:36:17;100285.84;;;25.81;63.31
45813;BME280;31519;45.408;10.962;2023-06-10T04:38:45;100287.97;;;25.70;63.20
45813;BME280;31519;45.408;10.962;2023-06-10T04:41:14;100282.63;;;25.89;62.98
45813;BME280;31519;45.408;10.962;2023-06-10T04:43:42;100289.88;;;25.42;63.90
45813;BME280;31519;45.408;10.962;2023-06-10T04:46:12;100286.75;;;25.10;65.34
45813;BME280;31519;45.408;10.962;2023-06-10T04:48:41;100284.59;;;25.28;64.79
45813;BME280;31519;45.408;10.962;2023-06-10T04:51:10;100286.44;;;25.69;63.77
45813;BME280;31519;45.408;10.962;2023-06-10T04:53:38;100290.53;;;25.80;63.24
45813;BME280;31519;45.408;10.962;2023-06-10T04:56:07;100299.47;;;25.84;62.98
45813;BME280;31519;45.408;10.962;2023-06-10T04:58:35;100297.91;;;26.10;61.50
45813;BME280;31519;45.408;10.962;2023-06-10T05:01:03;100287.31;;;25.89;62.27
45813;BME280;31519;45.408;10.962;2023-06-10T05:03:31;100291.31;;;25.81;62.08
45813;BME280;31519;45.408;10.962;2023-06-10T05:06:00;100286.28;;;26.06;61.23
45813;BME280;31519;45.408;10.962;2023-06-10T05:08:28;100289.66;;;26.14;61.38
45813;BME280;31519;45.408;10.962;2023-06-10T05:10:56;100289.00;;;26.06;61.48
45813;BME280;31519;45.408;10.962;2023-06-10T05:13:24;100290.56;;;26.03;60.69
45813;BME280;31519;45.408;10.962;2023-06-10T05:15:52;100294.47;;;26.06;60.49
45813;BME280;31519;45.408;10.962;2023-06-10T05:18:20;100286.97;;;26.10;60.68
45813;BME280;31519;45.408;10.962;2023-06-10T05:20:49;100282.16;;;26.18;60.64
45813;BME280;31519;45.408;10.962;2023-06-10T05:23:17;100285.38;;;26.13;60.97
45813;BME280;31519;45.408;10.962;2023-06-10T05:25:46;100292.72;;;25.92;61.58
45813;BME280;31519;45.408;10.962;2023-06-10T05:28:13;100290.78;;;26.16;60.92
45813;BME280;31519;45.408;10.962;2023-06-10T05:30:42;100295.03;;;26.21;60.92
45813;BME280;31519;45.408;10.962;2023-06-10T05:33:10;100296.94;;;26.24;60.99
45813;BME280;31519;45.408;10.962;2023-06-10T05:35:39;100297.91;;;26.10;61.43
45813;BME280;31519;45.408;10.962;2023-06-10T05:38:08;100295.94;;;26.11;61.42
45813;BME280;31519;45.408;10.962;2023-06-10T05:40:36;100297.38;;;26.19;61.37
45813;BME280;31519;45.408;10.962;2023-06-10T05:43:04;100298.50;;;25.94;62.11
45813;BME280;31519;45.408;10.962;2023-06-10T05:45:32;100293.69;;;26.06;61.58
45813;BME280;31519;45.408;10.962;2023-06-10T05:48:01;100287.03;;;26.07;61.87
45813;BME280;31519;45.408;10.962;2023-06-10T05:50:29;100292.25;;;26.24;61.75
45813;BME280;31519;45.408;10.962;2023-06-10T05:52:57;100291.31;;;26.34;61.21
45813;BME280;31519;45.408;10.962;2023-06-10T05:55:26;100288.13;;;26.36;60.92
45813;BME280;31519;45.408;10.962;2023-06-10T05:58:00;100284.91;;;26.18;60.99
45813;BME280;31519;45.408;10.962;2023-06-10T06:00:29;100282.03;;;25.48;63.31
45813;BME280;31519;45.408;10.962;2023-06-10T06:02:57;100287.44;;;24.84;66.17
45813;BME280;31519;45.408;10.962;2023-06-10T06:05:27;100285.13;;;24.79;66.44
45813;BME280;31519;45.408;10.962;2023-06-10T06:07:55;100296.50;;;24.70;66.84
45813;BME280;31519;45.408;10.962;2023-06-10T06:10:23;100296.56;;;25.38;64.59
45813;BME280;31519;45.408;10.962;2023-06-10T06:12:51;100290.53;;;25.50;63.71
45813;BME280;31519;45.408;10.962;2023-06-10T06:15:19;100288.59;;;25.50;63.39
45813;BME280;31519;45.408;10.962;2023-06-10T06:17:47;100287.56;;;25.41;63.60
45813;BME280;31519;45.408;10.962;2023-06-10T06:20:15;100293.84;;;25.38;64.17
45813;BME280;31519;45.408;10.962;2023-06-10T06:22:46;100283.06;;;25.57;63.97
45813;BME280;31519;45.408;10.962;2023-06-10T06:25:14;100287.72;;;25.61;64.12
45813;BME280;31519;45.408;10.962;2023-06-10T06:27:42;100292.22;;;25.40;65.41
45813;BME280;31519;45.408;10.962;2023-06-10T06:30:11;100295.06;;;25.64;64.23
45813;BME280;31519;45.408;10.962;2023-06-10T06:32:39;100299.81;;;25.59;65.18
45813;BME280;31519;45.408;10.962;2023-06-10T06:35:07;100294.69;;;25.31;66.17
45813;BME280;31519;45.408;10.962;2023-06-10T06:37:36;100299.78;;;25.29;66.21
45813;BME280;31519;45.408;10.962;2023-06-10T06:40:17;100300.97;;;25.89;64.99
45813;BME280;31519;45.408;10.962;2023-06-10T06:42:45;100296.47;;;25.45;65.79
45813;BME280;31519;45.408;10.962;2023-06-10T06:45:31;100298.25;;;25.85;65.02
45813;BME280;31519;45.408;10.962;2023-06-10T06:47:59;100294.91;;;25.44;66.92
45813;BME280;31519;45.408;10.962;2023-06-10T06:50:27;100300.56;;;24.96;69.36
45813;BME280;31519;45.408;10.962;2023-06-10T06:52:55;100301.91;;;25.45;68.07
45813;BME280;31519;45.408;10.962;2023-06-10T06:55:24;100303.50;;;25.42;67.95
45813;BME280;31519;45.408;10.962;2023-06-10T06:57:51;100303.97;;;25.37;68.69
45813;BME280;31519;45.408;10.962;2023-06-10T07:00:20;100301.41;;;25.84;67.54
45813;BME280;31519;45.408;10.962;2023-06-10T07:02:48;100314.09;;;25.97;66.29
45813;BME280;31519;45.408;10.962;2023-06-10T07:05:17;100308.19;;;25.42;69.38
45813;BME280;31519;45.408;10.962;2023-06-10T07:07:45;100317.88;;;25.12;71.13
45813;BME280;31519;45.408;10.962;2023-06-10T07:10:13;100316.78;;;25.40;71.84
45813;BME280;31519;45.408;10.962;2023-06-10T07:12:42;100317.97;;;25.05;73.78
45813;BME280;31519;45.408;10.962;2023-06-10T07:15:10;100316.75;;;24.69;76.89
45813;BME280;31519;45.408;10.962;2023-06-10T07:17:39;100314.63;;;25.58;73.41
45813;BME280;31519;45.408;10.962;2023-06-10T07:20:08;100317.41;;;25.51;74.25
45813;BME280;31519;45.408;10.962;2023-06-10T07:22:36;100320.88;;;25.25;77.05
45813;BME280;31519;45.408;10.962;2023-06-10T07:25:07;100317.41;;;25.51;77.15
45813;BME280;31519;45.408;10.962;2023-06-10T07:27:36;100317.41;;;24.80;81.05
45813;BME280;31519;45.408;10.962;2023-06-10T07:30:05;100309.94;;;24.91;81.92
45813;BME280;31519;45.408;10.962;2023-06-10T07:32:36;100312.41;;;25.16;81.55
45813;BME280;31519;45.408;10.962;2023-06-10T07:35:08;100305.50;;;25.04;83.16
45813;BME280;31519;45.408;10.962;2023-06-10T07:37:38;100311.81;;;25.66;79.83
45813;BME280;31519;45.408;10.962;2023-06-10T07:40:06;100307.31;;;24.77;84.50
45813;BME280;31519;45.408;10.962;2023-06-10T07:42:35;100306.69;;;25.37;83.19
45813;BME280;31519;45.408;10.962;2023-06-10T07:45:04;100302.13;;;25.61;82.19
45813;BME280;31519;45.408;10.962;2023-06-10T07:47:34;100300.59;;;25.87;80.80
45813;BME280;31519;45.408;10.962;2023-06-10T07:50:02;100300.19;;;25.58;82.72
45813;BME280;31519;45.408;10.962;2023-06-10T07:52:30;100292.97;;;26.01;80.48
45813;BME280;31519;45.408;10.962;2023-06-10T07:54:59;100290.84;;;25.86;80.98
45813;BME280;31519;45.408;10.962;2023-06-10T07:57:27;100294.63;;;26.19;78.53
45813;BME280;31519;45.408;10.962;2023-06-10T07:59:55;100289.00;;;25.19;82.87
45813;BME280;31519;45.408;10.962;2023-06-10T08:02:25;100298.56;;;25.91;79.87
45813;BME280;31519;45.408;10.962;2023-06-10T08:04:54;100293.13;;;26.41;76.92
45813;BME280;31519;45.408;10.962;2023-06-10T08:07:22;100292.81;;;26.35;76.29
45813;BME280;31519;45.408;10.962;2023-06-10T08:09:50;100289.94;;;26.19;76.38
45813;BME280;31519;45.408;10.962;2023-06-10T08:12:18;100293.84;;;26.45;76.53
45813;BME280;31519;45.408;10.962;2023-06-10T08:14:48;100298.16;;;26.66;73.75
45813;BME280;31519;45.408;10.962;2023-06-10T08:17:16;100296.22;;;26.89;71.90
45813;BME280;31519;45.408;10.962;2023-06-10T08:19:44;100291.78;;;26.02;74.34
45813;BME280;31519;45.408;10.962;2023-06-10T08:22:13;100293.34;;;26.27;73.41
45813;BME280;31519;45.408;10.962;2023-06-10T08:24:41;100289.59;;;26.44;71.70
45813;BME280;31519;45.408;10.962;2023-06-10T08:27:09;100299.97;;;26.29;73.26
45813;BME280;31519;45.408;10.962;2023-06-10T08:29:39;100295.38;;;26.46;73.45
45813;BME280;31519;45.408;10.962;2023-06-10T08:32:07;100296.63;;;26.88;70.39
45813;BME280;31519;45.408;10.962;2023-06-10T08:34:35;100301.56;;;26.50;73.02
45813;BME280;31519;45.408;10.962;2023-06-10T08:37:04;100296.78;;;26.54;71.59
45813;BME280;31519;45.408;10.962;2023-06-10T08:39:33;100296.78;;;25.81;75.37
45813;BME280;31519;45.408;10.962;2023-06-10T08:42:28;100294.69;;;26.42;72.47
45813;BME280;31519;45.408;10.962;2023-06-10T08:45:01;100292.31;;;26.21;73.33
45813;BME280;31519;45.408;10.962;2023-06-10T08:47:30;100301.84;;;26.32;70.56
45813;BME280;31519;45.408;10.962;2023-06-10T08:50:04;100293.06;;;25.68;71.60
45813;BME280;31519;45.408;10.962;2023-06-10T08:52:37;100296.53;;;25.98;71.24
45813;BME280;31519;45.408;10.962;2023-06-10T08:55:14;100289.84;;;26.03;71.66
45813;BME280;31519;45.408;10.962;2023-06-10T08:57:43;100288.13;;;26.59;71.24
45813;BME280;31519;45.408;10.962;2023-06-10T09:00:13;100282.66;;;25.86;72.72
45813;BME280;31519;45.408;10.962;2023-06-10T09:02:43;100286.44;;;26.19;71.62
45813;BME280;31519;45.408;10.962;2023-06-10T09:05:13;100293.06;;;25.94;73.41
45813;BME280;31519;45.408;10.962;2023-06-10T09:07:41;100298.06;;;25.99;70.68
45813;BME280;31519;45.408;10.962;2023-06-10T09:10:11;100302.25;;;26.31;70.70
45813;BME280;31519;45.408;10.962;2023-06-10T09:12:39;100298.31;;;25.82;71.62
45813;BME280;31519;45.408;10.962;2023-06-10T09:15:08;100298.88;;;26.46;69.10
45813;BME280;31519;45.408;10.962;2023-06-10T09:17:36;100299.31;;;26.18;68.91
45813;BME280;31519;45.408;10.962;2023-06-10T09:20:07;100305.78;;;26.04;69.03
45813;BME280;31519;45.408;10.962;2023-06-10T09:22:38;100301.06;;;26.55;67.08
45813;BME280;31519;45.408;10.962;2023-06-10T09:25:10;100309.81;;;25.96;67.09
45813;BME280;31519;45.408;10.962;2023-06-10T09:27:46;100299.78;;;26.40;66.09
45813;BME280;31519;45.408;10.962;2023-06-10T09:30:32;100303.34;;;26.10;64.66
45813;BME280;31519;45.408;10.962;2023-06-10T09:33:03;100307.50;;;26.45;63.00
45813;BME280;31519;45.408;10.962;2023-06-10T09:35:47;100301.50;;;26.54;61.97
45813;BME280;31519;45.408;10.962;2023-06-10T09:38:20;100304.19;;;26.07;61.38
45813;BME280;31519;45.408;10.962;2023-06-10T09:40:52;100314.88;;;25.98;61.19
45813;BME280;31519;45.408;10.962;2023-06-10T09:43:21;100318.72;;;26.74;59.58
45813;BME280;31519;45.408;10.962;2023-06-10T09:45:50;100301.09;;;26.32;60.60
45813;BME280;31519;45.408;10.962;2023-06-10T09:48:21;100306.03;;;26.14;60.37
45813;BME280;31519;45.408;10.962;2023-06-10T09:50:52;100303.16;;;26.24;60.49
45813;BME280;31519;45.408;10.962;2023-06-10T09:53:20;100305.78;;;26.04;59.57
45813;BME280;31519;45.408;10.962;2023-06-10T09:55:48;100305.13;;;26.47;58.62
45813;BME280;31519;45.408;10.962;2023-06-10T09:58:16;100305.00;;;26.31;57.09
45813;BME280;31519;45.408;10.962;2023-06-10T10:00:52;100306.13;;;26.33;57.45
45813;BME280;31519;45.408;10.962;2023-06-10T10:03:24;100304.81;;;26.41;58.43
45813;BME280;31519;45.408;10.962;2023-06-10T10:05:58;100309.66;;;26.57;57.55
45813;BME280;31519;45.408;10.962;2023-06-10T10:08:27;100312.16;;;26.91;57.24
45813;BME280;31519;45.408;10.962;2023-06-10T10:10:57;100307.84;;;26.47;59.27
45813;BME280;31519;45.408;10.962;2023-06-10T10:13:26;100307.00;;;26.73;58.03
45813;BME280;31519;45.408;10.962;2023-06-10T10:16:00;100309.44;;;26.44;58.57
45813;BME280;31519;45.408;10.962;2023-06-10T10:18:29;100307.03;;;26.50;57.61
45813;BME280;31519;45.408;10.962;2023-06-10T10:21:04;100305.97;;;26.67;57.88
45813;BME280;31519;45.408;10.962;2023-06-10T10:24:16;100296.09;;;26.27;58.04
45813;BME280;31519;45.408;10.962;2023-06-10T10:26:41;100292.41;;;26.60;56.65
45813;BME280;31519;45.408;10.962;2023-06-10T10:31:44;100296.78;;;26.77;56.02
45813;BME280;31519;45.408;10.962;2023-06-10T10:34:21;100291.63;;;27.42;54.03
45813;BME280;31519;45.408;10.962;2023-06-10T10:36:52;100285.09;;;27.36;54.69
45813;BME280;31519;45.408;10.962;2023-06-10T10:39:22;100289.59;;;26.64;56.69
45813;BME280;31519;45.408;10.962;2023-06-10T10:41:50;100288.97;;;27.39;55.42
45813;BME280;31519;45.408;10.962;2023-06-10T10:44:19;100291.09;;;27.11;55.11
45813;BME280;31519;45.408;10.962;2023-06-10T10:46:51;100297.09;;;27.78;54.38
45813;BME280;31519;45.408;10.962;2023-06-10T10:49:20;100299.97;;;27.55;54.84
45813;BME280;31519;45.408;10.962;2023-06-10T10:51:56;100307.25;;;27.61;54.21
45813;BME280;31519;45.408;10.962;2023-06-10T10:54:33;100311.34;;;27.14;54.94
45813;BME280;31519;45.408;10.962;2023-06-10T10:59:50;100301.88;;;27.18;55.67
45813;BME280;31519;45.408;10.962;2023-06-10T11:05:07;100312.75;;;27.61;55.42
45813;BME280;31519;45.408;10.962;2023-06-10T11:07:36;100298.66;;;27.79;54.02
45813;BME280;31519;45.408;10.962;2023-06-10T11:10:10;100294.00;;;27.60;55.51
45813;BME280;31519;45.408;10.962;2023-06-10T11:15:13;100275.06;;;27.85;54.81
45813;BME280;31519;45.408;10.962;2023-06-10T11:26:16;100276.50;;;28.06;53.77
45813;BME280;31519;45.408;10.962;2023-06-10T11:31:19;100270.56;;;28.11;53.55
45813;BME280;31519;45.408;10.962;2023-06-10T11:34:02;100261.31;;;28.66;52.82
45813;BME280;31519;45.408;10.962;2023-06-10T11:36:34;100274.63;;;28.51;52.07
45813;BME280;31519;45.408;10.962;2023-06-10T11:39:05;100262.81;;;28.06;54.09
45813;BME280;31519;45.408;10.962;2023-06-10T11:41:35;100263.69;;;28.80;51.88
45813;BME280;31519;45.408;10.962;2023-06-10T11:44:07;100273.16;;;28.47;52.30
45813;BME280;31519;45.408;10.962;2023-06-10T11:46:36;100270.47;;;28.76;53.08
45813;BME280;31519;45.408;10.962;2023-06-10T11:49:06;100277.44;;;28.64;52.21
45813;BME280;31519;45.408;10.962;2023-06-10T11:51:36;100271.03;;;28.38;52.78
45813;BME280;31519;45.408;10.962;2023-06-10T11:54:05;100281.00;;;29.06;51.08
45813;BME280;31519;45.408;10.962;2023-06-10T11:56:33;100272.69;;;28.36;52.41
45813;BME280;31519;45.408;10.962;2023-06-10T11:59:05;100266.53;;;28.15;54.12
45813;BME280;31519;45.408;10.962;2023-06-10T12:01:42;100259.53;;;29.17;51.23
45813;BME280;31519;45.408;10.962;2023-06-10T12:04:14;100258.06;;;28.71;52.54
45813;BME280;31519;45.408;10.962;2023-06-10T12:06:48;100242.13;;;28.21;53.65
45813;BME280;31519;45.408;10.962;2023-06-10T12:09:26;100251.03;;;28.25;52.78
45813;BME280;31519;45.408;10.962;2023-06-10T12:12:00;100229.31;;;28.18;53.49
45813;BME280;31519;45.408;10.962;2023-06-10T12:14:58;100229.38;;;28.14;52.93
45813;BME280;31519;45.408;10.962;2023-06-10T12:20:06;100216.78;;;27.68;52.70
45813;BME280;31519;45.408;10.962;2023-06-10T12:22:44;100209.13;;;27.44;53.17
45813;BME280;31519;45.408;10.962;2023-06-10T12:25:12;100203.47;;;27.70;53.58
45813;BME280;31519;45.408;10.962;2023-06-10T12:27:51;100217.72;;;27.26;54.43
45813;BME280;31519;45.408;10.962;2023-06-10T12:30:25;100204.72;;;27.82;53.12
45813;BME280;31519;45.408;10.962;2023-06-10T12:32:54;100213.72;;;27.66;53.11
45813;BME280;31519;45.408;10.962;2023-06-10T12:35:26;100209.34;;;28.01;52.81
45813;BME280;31519;45.408;10.962;2023-06-10T12:38:04;100211.59;;;28.80;50.54
45813;BME280;31519;45.408;10.962;2023-06-10T12:40:38;100217.06;;;30.10;47.09
45813;BME280;31519;45.408;10.962;2023-06-10T12:43:08;100215.34;;;30.60;45.28
45813;BME280;31519;45.408;10.962;2023-06-10T12:45:37;100211.50;;;29.38;47.10
45813;BME280;31519;45.408;10.962;2023-06-10T12:48:23;100217.22;;;30.28;44.22
45813;BME280;31519;45.408;10.962;2023-06-10T12:50:56;100209.44;;;31.14;43.10
45813;BME280;31519;45.408;10.962;2023-06-10T12:53:25;100203.38;;;30.54;43.01
45813;BME280;31519;45.408;10.962;2023-06-10T12:55:57;100213.75;;;30.03;44.61
45813;BME280;31519;45.408;10.962;2023-06-10T12:58:25;100209.06;;;30.81;42.92
45813;BME280;31519;45.408;10.962;2023-06-10T13:00:55;100203.13;;;29.79;42.88
45813;BME280;31519;45.408;10.962;2023-06-10T13:03:24;100208.75;;;31.62;41.71
45813;BME280;31519;45.408;10.962;2023-06-10T13:05:54;100199.03;;;31.49;42.78
45813;BME280;31519;45.408;10.962;2023-06-10T13:08:22;100206.69;;;32.03;41.42
45813;BME280;31519;45.408;10.962;2023-06-10T13:10:50;100195.50;;;31.88;41.89
45813;BME280;31519;45.408;10.962;2023-06-10T13:13:18;100201.16;;;31.05;42.75
45813;BME280;31519;45.408;10.962;2023-06-10T13:15:46;100190.31;;;32.54;40.63
45813;BME280;31519;45.408;10.962;2023-06-10T13:18:14;100198.53;;;31.81;40.38
45813;BME280;31519;45.408;10.962;2023-06-10T13:20:43;100197.88;;;30.54;42.80
45813;BME280;31519;45.408;10.962;2023-06-10T13:23:11;100184.97;;;31.07;41.64
45813;BME280;31519;45.408;10.962;2023-06-10T13:25:39;100182.19;;;31.96;39.93